Caldwell, Idaho
Current Conditions -  °F | °C
As of 8:55 PM on Thursday 27 Nov 2014 (Local Time) from KMAN Reporting Station
Clear Clear  
Wind Chill: 39°   Ceiling: Unl
Heat Index: 43°   Visibility: 9mi
Dew Point: 43°   Wind: 7mph
Humidity: 100%   Direction: 300°WNW
Pressure: 30.01"   Gusts: NA
Location:  43.67°N, 116.69°W
Report Text: KMAN 280355Z AUTO 30006KT 9SM CLR 06/06 A3001 RMK AO1
Loading
Personal Weather Stations






























Interactive Weather Map New forecast layout! Learn more

10-Day Weather Forecast

Advertisements
Track Severe Weather on mobile